PATC/TNC METAR and TAF weather

Enter ICAO airport designator
Station Type Date Time Source
PATC METAR 2021/05/11 21:55 UTC NOAA

PATC 112155Z 08002KT 10SM BKN044 04/02 A3001 RMK AO2A SLP166 BWC LOW


Station Type Date Time Source
PATC Decoded METAR 2021/05/11 21:55 UTC NOAA

Tin City Airways Facilities Sector, AK, United States (PATC) 65-34N 167-55W
May 11, 2021 - 05:55 PM EDT / 2021.05.11 2155 UTC
Wind: from the E (080 degrees) at 2 MPH (2 KT):0
Visibility: 10 mile(s):0
Sky conditions: mostly cloudy
Temperature: 39 F (4 C)
Dew Point: 35 F (2 C)
Relative Humidity: 86%
Pressure (altimeter): 30.01 in. Hg (1016 hPa)
ob: PATC 112155Z 08002KT 10SM BKN044 04/02 A3001 RMK AO2A SLP166 BWC LOW
cycle: 22

Station Type Date Time Source
PATC TAF 2016/08/27 04:12 UTC NOAA

TAF PATC 270400Z 2704/2810 18012G18KT 0400 FG OVC002 QNH3015INS TX10/2718Z TN06/2710Z

Example: see airport list